createdAt,value
2018-12-18T00:02:59.973Z,88.2
2018-12-18T00:13:13.376Z,87.9
2018-12-18T00:23:27.394Z,88.6
2018-12-18T00:34:12.242Z,88.3
2018-12-18T00:44:23.375Z,88.0
2018-12-18T00:54:36.830Z,88.0
2018-12-18T01:04:50.857Z,87.9
2018-12-18T01:15:04.479Z,88.0
2018-12-18T01:25:49.667Z,88.0
2018-12-18T01:36:03.385Z,88.0
2018-12-18T01:46:17.457Z,87.6
2018-12-18T01:56:30.524Z,88.0
2018-12-18T02:06:43.879Z,87.8
2018-12-18T02:16:57.135Z,87.7
2018-12-18T02:27:10.812Z,87.7
2018-12-18T02:37:24.319Z,87.7
2018-12-18T02:47:37.824Z,88.1
2018-12-18T02:57:53.042Z,88.2
2018-12-18T03:08:07.074Z,88.0
2018-12-18T03:18:51.804Z,87.7
2018-12-18T03:29:36.703Z,87.7
2018-12-18T03:39:50.378Z,87.6
2018-12-18T03:50:04.532Z,88.0
2018-12-18T04:00:18.373Z,87.8
2018-12-18T04:11:05.479Z,87.9
2018-12-18T04:21:16.472Z,87.6
2018-12-18T04:32:01.055Z,87.7
2018-12-18T04:42:46.067Z,87.4
2018-12-18T04:52:59.186Z,87.3
2018-12-18T05:03:12.129Z,87.2
2018-12-18T05:13:25.890Z,87.1
2018-12-18T05:23:39.956Z,87.0
2018-12-18T05:33:53.121Z,87.1
2018-12-18T05:44:06.354Z,86.9
2018-12-18T05:54:19.248Z,86.8
2018-12-18T06:04:32.452Z,86.8
2018-12-18T06:14:45.840Z,86.6
2018-12-18T06:24:58.869Z,86.6
2018-12-18T06:35:14.780Z,86.5
2018-12-18T06:45:28.457Z,86.9
2018-12-18T06:55:39.773Z,86.7
2018-12-18T07:05:54.445Z,87.0
2018-12-18T07:16:40.033Z,86.7
2018-12-18T07:27:27.306Z,86.6
2018-12-18T07:37:41.138Z,86.6
2018-12-18T07:47:54.908Z,86.6
2018-12-18T07:58:08.295Z,86.8
2018-12-18T08:08:53.205Z,86.8
2018-12-18T08:19:07.313Z,86.7
2018-12-18T08:29:20.629Z,86.8
2018-12-18T08:39:34.447Z,86.8
2018-12-18T08:49:47.678Z,86.8
2018-12-18T09:00:00.683Z,86.9
2018-12-18T09:10:14.067Z,87.0
2018-12-18T09:20:27.457Z,87.2
2018-12-18T09:31:11.970Z,87.4
2018-12-18T09:41:25.144Z,86.8
2018-12-18T09:51:38.521Z,86.4
2018-12-18T10:01:51.374Z,86.0
2018-12-18T10:14:02.983Z,86.0
2018-12-18T10:24:53.744Z,85.6
2018-12-18T10:36:07.700Z,85.6
2018-12-18T10:47:32.103Z,85.6
2018-12-18T10:58:23.801Z,85.5
2018-12-18T11:08:38.223Z,85.4
2018-12-18T11:20:23.992Z,85.7
2018-12-18T11:31:31.765Z,85.9
2018-12-18T11:42:35.243Z,86.0
2018-12-18T11:54:14.110Z,85.8
2018-12-18T12:05:28.358Z,85.5
2018-12-18T12:16:36.378Z,85.5
2018-12-18T12:27:36.275Z,85.4
2018-12-18T12:38:47.427Z,85.1
2018-12-18T12:49:15.229Z,84.8
2018-12-18T13:00:20.510Z,83.6
2018-12-18T13:11:13.690Z,83.5
2018-12-18T13:24:26.599Z,83.9
2018-12-18T13:39:56.420Z,83.5
2018-12-18T13:51:37.941Z,83.3
2018-12-18T14:03:20.923Z,83.5
2018-12-18T14:15:53.516Z,83.6
2018-12-18T14:32:58.146Z,83.5
2018-12-18T14:43:11.480Z,83.2
2018-12-18T14:53:24.771Z,83.1
2018-12-18T15:03:38.251Z,83.1
2018-12-18T15:13:52.272Z,83.0
2018-12-18T15:24:06.424Z,82.9
2018-12-18T15:34:28.739Z,82.8
2018-12-18T15:44:53.846Z,82.8
2018-12-18T15:55:26.066Z,82.5
2018-12-18T16:06:12.528Z,82.2
2018-12-18T16:16:37.798Z,82.3
2018-12-18T16:27:38.882Z,82.3
2018-12-18T16:37:53.401Z,82.1
2018-12-18T16:48:07.770Z,82.5
2018-12-18T16:59:04.863Z,82.3
2018-12-18T17:09:31.964Z,82.5
2018-12-18T17:19:46.053Z,82.7
2018-12-18T17:29:59.794Z,82.6
2018-12-18T17:40:44.705Z,82.7
2018-12-18T17:51:30.319Z,82.7
2018-12-18T18:01:44.560Z,82.7
2018-12-18T18:11:57.916Z,82.6
2018-12-18T18:22:11.350Z,82.6
2018-12-18T18:32:25.474Z,82.4
2018-12-18T18:42:39.533Z,82.2
2018-12-18T18:52:52.953Z,82.2
2018-12-18T19:03:10.208Z,82.3
2018-12-18T19:13:24.507Z,82.3
2018-12-18T19:23:38.486Z,82.2
2018-12-18T19:34:23.043Z,82.2
2018-12-18T19:44:36.724Z,82.4
2018-12-18T19:54:49.029Z,82.5
2018-12-18T20:05:03.008Z,82.6
2018-12-18T20:15:14.361Z,82.6
2018-12-18T20:25:28.375Z,82.5
2018-12-18T20:35:41.397Z,82.5
2018-12-18T20:45:52.698Z,82.5
2018-12-18T20:56:05.900Z,82.5
2018-12-18T21:06:33.232Z,82.6
2018-12-18T21:16:46.743Z,82.5
2018-12-18T21:27:00.699Z,82.5
2018-12-18T21:37:14.137Z,82.5
2018-12-18T21:47:28.169Z,82.5
2018-12-18T21:57:41.303Z,82.5
2018-12-18T22:07:54.672Z,82.6
2018-12-18T22:18:47.681Z,82.6
2018-12-18T22:29:01.101Z,82.8
2018-12-18T22:39:16.641Z,82.8
2018-12-18T22:49:30.214Z,82.8
2018-12-18T22:59:43.685Z,82.8
2018-12-18T23:09:57.850Z,82.7
2018-12-18T23:20:11.956Z,82.7
2018-12-18T23:30:57.053Z,82.8
2018-12-18T23:41:10.890Z,82.8
2018-12-18T23:51:24.022Z,83.0
